createdAt,value
2018-11-29T00:00:25.149Z,84.00
2018-11-29T00:02:53.591Z,84.50
2018-11-29T00:05:22.027Z,84.60
2018-11-29T00:07:50.514Z,84.50
2018-11-29T00:10:19.014Z,84.30
2018-11-29T00:12:47.475Z,84.50
2018-11-29T00:15:16.284Z,85.50
2018-11-29T00:17:44.737Z,86.20
2018-11-29T00:20:14.104Z,87.60
2018-11-29T00:22:43.204Z,87.20
2018-11-29T00:25:12.676Z,87.50
2018-11-29T00:27:41.143Z,87.50
2018-11-29T00:30:12.640Z,87.40
2018-11-29T00:32:41.067Z,88.30
2018-11-29T00:35:10.723Z,89.40
2018-11-29T00:37:39.171Z,90.30
2018-11-29T00:40:16.087Z,90.40
2018-11-29T00:42:44.647Z,90.70
2018-11-29T00:45:15.860Z,90.80
2018-11-29T00:47:44.877Z,90.60
2018-11-29T00:50:14.204Z,90.50
2018-11-29T00:52:43.513Z,90.40
2018-11-29T00:55:14.272Z,90.20
2018-11-29T00:57:42.699Z,90.10
2018-11-29T01:00:13.534Z,90.00
2018-11-29T01:02:42.108Z,89.80
2018-11-29T01:05:10.776Z,89.90
2018-11-29T01:07:39.780Z,90.10
2018-11-29T01:10:11.480Z,89.30
2018-11-29T01:12:39.971Z,88.80
2018-11-29T01:15:12.402Z,88.40
2018-11-29T01:17:40.942Z,88.60
2018-11-29T01:20:12.236Z,88.30
2018-11-29T01:22:40.688Z,88.20
2018-11-29T01:25:13.081Z,88.00
2018-11-29T01:27:42.148Z,87.90
2018-11-29T01:30:12.291Z,87.80
2018-11-29T01:32:40.808Z,87.40
2018-11-29T01:35:11.214Z,87.80
2018-11-29T01:37:39.646Z,88.70
2018-11-29T01:40:22.192Z,88.90
2018-11-29T01:42:53.771Z,89.30
2018-11-29T01:45:22.274Z,89.80
2018-11-29T01:47:50.736Z,90.00
2018-11-29T01:50:19.184Z,90.20
2018-11-29T01:52:47.704Z,90.20
2018-11-29T01:55:16.207Z,90.60
2018-11-29T01:57:44.729Z,90.70
2018-11-29T02:00:14.973Z,90.90
2018-11-29T02:02:44.045Z,91.10
2018-11-29T02:05:12.734Z,91.10
2018-11-29T02:07:41.147Z,91.20
2018-11-29T02:10:16.936Z,91.20
2018-11-29T02:12:45.576Z,91.40
2018-11-29T02:15:14.031Z,91.50
2018-11-29T02:17:42.571Z,91.40
2018-11-29T02:20:14.262Z,91.50
2018-11-29T02:22:42.740Z,91.40
2018-11-29T02:25:11.233Z,91.50
2018-11-29T02:27:39.822Z,91.60
2018-11-29T02:30:24.093Z,91.60
2018-11-29T02:32:52.761Z,91.60
2018-11-29T02:35:21.219Z,91.90
2018-11-29T02:37:49.650Z,92.00
2018-11-29T02:40:18.739Z,92.10
2018-11-29T02:42:48.217Z,92.20
2018-11-29T02:45:19.795Z,92.30
2018-11-29T02:47:48.343Z,92.20
2018-11-29T02:50:16.788Z,92.30
2018-11-29T02:52:45.221Z,92.20
2018-11-29T02:55:13.738Z,92.40
2018-11-29T02:57:42.529Z,92.30
2018-11-29T03:00:15.891Z,92.10
2018-11-29T03:02:44.483Z,92.10
2018-11-29T03:05:13.053Z,91.90
2018-11-29T03:07:41.553Z,91.50
2018-11-29T03:10:11.059Z,91.40
2018-11-29T03:12:39.514Z,91.40
2018-11-29T03:15:12.185Z,91.30
2018-11-29T03:17:40.656Z,91.30
2018-11-29T03:20:10.385Z,91.50
2018-11-29T03:22:38.813Z,91.10
2018-11-29T03:25:08.935Z,90.90
2018-11-29T03:27:37.349Z,90.80
2018-11-29T03:30:07.544Z,90.60
2018-11-29T03:32:36.025Z,90.40
2018-11-29T03:35:04.559Z,90.10
2018-11-29T03:37:32.974Z,90.20
2018-11-29T03:40:01.394Z,89.90
2018-11-29T03:42:29.854Z,89.60
2018-11-29T03:44:58.256Z,88.30
2018-11-29T03:50:01.265Z,88.30
2018-11-29T03:52:29.816Z,87.60
2018-11-29T03:54:58.314Z,87.60
2018-11-29T03:57:26.880Z,87.30
2018-11-29T03:59:55.358Z,86.80
2018-11-29T04:02:23.829Z,86.70
2018-11-29T04:04:52.216Z,86.10
2018-11-29T04:07:20.624Z,86.60
2018-11-29T04:09:49.049Z,86.60
2018-11-29T04:12:17.464Z,86.30
2018-11-29T04:14:45.900Z,86.00
2018-11-29T04:17:14.423Z,86.30
2018-11-29T04:19:42.853Z,85.80
2018-11-29T04:22:11.279Z,85.80
2018-11-29T04:24:39.689Z,85.40
2018-11-29T04:27:08.106Z,84.90
2018-11-29T04:29:36.517Z,85.60
2018-11-29T04:32:04.947Z,85.40
2018-11-29T04:34:33.347Z,84.70
2018-11-29T04:37:01.762Z,84.90
2018-11-29T04:39:30.184Z,85.00
2018-11-29T04:41:58.620Z,84.20
2018-11-29T04:44:27.054Z,84.90
2018-11-29T04:46:55.483Z,84.60
2018-11-29T04:49:23.995Z,84.40
2018-11-29T04:51:52.427Z,83.90
2018-11-29T04:54:20.843Z,83.90
2018-11-29T04:56:49.256Z,83.60
2018-11-29T04:59:17.671Z,83.40
2018-11-29T05:01:46.100Z,83.00
2018-11-29T05:04:14.623Z,83.30
2018-11-29T05:06:43.042Z,83.00
2018-11-29T05:09:11.446Z,82.70
2018-11-29T05:11:39.856Z,82.40
2018-11-29T05:14:08.247Z,82.30
2018-11-29T05:16:36.631Z,82.20
2018-11-29T05:19:05.099Z,82.30
2018-11-29T05:21:33.553Z,82.30
2018-11-29T05:24:02.082Z,82.00
2018-11-29T05:26:30.555Z,82.20
2018-11-29T05:28:59.005Z,82.20
2018-11-29T05:31:27.438Z,82.60
2018-11-29T05:33:55.847Z,82.90
2018-11-29T05:36:24.275Z,82.70
2018-11-29T05:38:52.710Z,83.00
2018-11-29T05:41:21.136Z,82.90
2018-11-29T05:43:49.570Z,82.90
2018-11-29T05:46:17.995Z,82.50
2018-11-29T05:48:46.503Z,82.80
2018-11-29T05:51:14.962Z,82.50
2018-11-29T05:53:43.479Z,82.60
2018-11-29T05:56:11.907Z,82.20
2018-11-29T05:58:40.422Z,82.50
2018-11-29T06:01:14.813Z,82.30
2018-11-29T06:03:43.323Z,81.90
2018-11-29T06:06:11.788Z,82.30
2018-11-29T06:08:40.224Z,81.70
2018-11-29T06:11:08.671Z,81.50
2018-11-29T06:13:37.178Z,80.90
2018-11-29T06:16:05.812Z,80.50
2018-11-29T06:18:36.178Z,80.70
2018-11-29T06:21:05.135Z,80.60
2018-11-29T06:23:33.548Z,80.80
2018-11-29T06:26:01.981Z,82.10
2018-11-29T06:28:30.430Z,83.00
2018-11-29T06:30:58.973Z,84.30
2018-11-29T06:33:27.405Z,85.30
2018-11-29T06:35:55.854Z,85.90
2018-11-29T06:38:24.273Z,85.80
2018-11-29T06:40:52.789Z,85.70
2018-11-29T06:43:21.222Z,86.30
2018-11-29T06:45:49.635Z,85.40
2018-11-29T06:48:18.072Z,85.40
2018-11-29T06:50:46.468Z,84.90
2018-11-29T06:53:20.223Z,85.50
2018-11-29T06:55:48.681Z,85.60
2018-11-29T06:58:17.092Z,86.20
2018-11-29T07:00:45.773Z,86.40
2018-11-29T07:03:14.191Z,87.10
2018-11-29T07:05:42.705Z,87.10
2018-11-29T07:08:11.245Z,87.00
2018-11-29T07:10:39.759Z,87.30
2018-11-29T07:13:08.244Z,87.50
2018-11-29T07:15:36.792Z,87.70
2018-11-29T07:18:05.324Z,87.50
2018-11-29T07:20:33.739Z,87.10
2018-11-29T07:23:02.167Z,87.30
2018-11-29T07:25:30.631Z,87.10
2018-11-29T07:27:59.091Z,86.40
2018-11-29T07:30:27.559Z,86.10
2018-11-29T07:32:56.082Z,87.20
2018-11-29T07:35:24.553Z,86.80
2018-11-29T07:37:53.031Z,88.10
2018-11-29T07:40:21.522Z,89.00
2018-11-29T07:42:52.553Z,89.40
2018-11-29T07:45:21.707Z,89.60
2018-11-29T07:47:50.191Z,89.80
2018-11-29T07:50:23.331Z,89.90
2018-11-29T07:52:51.779Z,90.10
2018-11-29T07:55:21.240Z,90.30
2018-11-29T07:57:51.026Z,90.50
2018-11-29T08:00:19.477Z,90.80
2018-11-29T08:02:48.038Z,91.10
2018-11-29T08:05:16.687Z,91.20
2018-11-29T08:07:47.661Z,91.30
2018-11-29T08:10:16.034Z,91.40
2018-11-29T08:12:44.515Z,91.50
2018-11-29T08:15:17.268Z,91.50
2018-11-29T08:17:45.809Z,91.70
2018-11-29T08:20:16.266Z,91.90
2018-11-29T08:22:44.692Z,92.10
2018-11-29T08:25:13.231Z,92.30
2018-11-29T08:27:41.782Z,92.10
2018-11-29T08:30:13.537Z,92.20
2018-11-29T08:32:42.026Z,92.20
2018-11-29T08:35:12.471Z,92.20
2018-11-29T08:37:42.022Z,92.20
2018-11-29T08:40:16.549Z,92.30
2018-11-29T08:42:44.961Z,92.30
2018-11-29T08:45:13.478Z,92.20
2018-11-29T08:47:41.911Z,92.20
2018-11-29T08:50:11.487Z,92.20
2018-11-29T08:52:40.555Z,92.10
2018-11-29T08:55:17.139Z,92.00
2018-11-29T08:57:46.067Z,92.00
2018-11-29T09:00:17.413Z,92.10
2018-11-29T09:02:45.897Z,91.90
2018-11-29T09:05:14.538Z,91.90
2018-11-29T09:07:43.855Z,91.70
2018-11-29T09:10:13.455Z,91.80
2018-11-29T09:12:41.916Z,91.80
2018-11-29T09:15:11.574Z,91.90
2018-11-29T09:17:40.115Z,91.80
2018-11-29T09:20:12.627Z,91.40
2018-11-29T09:22:41.267Z,91.30
2018-11-29T09:25:11.810Z,91.20
2018-11-29T09:27:40.298Z,91.10
2018-11-29T09:30:13.611Z,91.00
2018-11-29T09:32:42.837Z,90.60
2018-11-29T09:35:11.397Z,90.40
2018-11-29T09:37:39.883Z,90.30
2018-11-29T09:40:10.400Z,90.20
2018-11-29T09:42:39.529Z,90.00
2018-11-29T09:45:11.492Z,90.00
2018-11-29T09:47:39.935Z,89.10
2018-11-29T09:50:11.728Z,90.00
2018-11-29T09:52:40.485Z,89.50
2018-11-29T09:55:11.187Z,89.40
2018-11-29T09:57:39.662Z,89.90
2018-11-29T10:00:16.507Z,89.40
2018-11-29T10:02:50.856Z,88.20
2018-11-29T10:05:19.610Z,87.60
2018-11-29T10:07:48.056Z,88.00
2018-11-29T10:10:16.733Z,87.80
2018-11-29T10:12:46.151Z,87.50
2018-11-29T10:15:14.671Z,87.20
2018-11-29T10:17:43.136Z,87.80
2018-11-29T10:20:12.531Z,86.80
2018-11-29T10:22:42.270Z,86.00
2018-11-29T10:25:12.065Z,86.60
2018-11-29T10:27:41.138Z,86.40
2018-11-29T10:30:17.882Z,86.80
2018-11-29T10:32:46.293Z,86.70
2018-11-29T10:35:14.767Z,87.00
2018-11-29T10:37:43.220Z,88.00
2018-11-29T10:40:11.725Z,85.90
2018-11-29T10:42:40.188Z,86.40
2018-11-29T10:45:11.585Z,84.80
2018-11-29T10:47:40.521Z,85.90
2018-11-29T10:50:10.663Z,85.70
2018-11-29T10:52:39.092Z,85.70
2018-11-29T10:55:12.585Z,84.70
2018-11-29T10:57:41.126Z,84.00
2018-11-29T11:00:31.681Z,84.10
2018-11-29T11:03:06.607Z,83.70
2018-11-29T11:05:35.215Z,83.80
2018-11-29T11:08:08.178Z,84.50
2018-11-29T11:10:32.300Z,83.90
2018-11-29T11:13:00.831Z,83.80
2018-11-29T11:15:29.339Z,83.30
2018-11-29T11:17:57.783Z,83.50
2018-11-29T11:20:26.224Z,82.90
2018-11-29T11:22:54.764Z,83.40
2018-11-29T11:25:23.231Z,83.60
2018-11-29T11:27:51.736Z,85.40
2018-11-29T11:30:21.183Z,85.70
2018-11-29T11:32:50.857Z,85.90
2018-11-29T11:35:19.330Z,86.20
2018-11-29T11:37:47.809Z,86.40
2018-11-29T11:40:17.127Z,86.10
2018-11-29T11:42:46.490Z,86.60
2018-11-29T11:45:17.001Z,86.60
2018-11-29T11:47:45.520Z,86.60
2018-11-29T11:50:15.346Z,86.60
2018-11-29T11:52:43.760Z,86.80
2018-11-29T11:55:18.690Z,86.60
2018-11-29T11:57:41.910Z,86.30
2018-11-29T12:00:19.533Z,86.20
2018-11-29T12:02:49.479Z,86.90
2018-11-29T12:05:17.972Z,87.80
2018-11-29T12:07:46.381Z,88.20
2018-11-29T12:10:15.683Z,87.80
2018-11-29T12:12:44.176Z,86.90
2018-11-29T12:15:14.552Z,86.70
2018-11-29T12:17:44.040Z,86.60
2018-11-29T12:20:14.449Z,86.00
2018-11-29T12:22:42.851Z,86.10
2018-11-29T12:25:20.272Z,85.40
2018-11-29T12:27:48.835Z,85.50
2018-11-29T12:30:25.313Z,85.20
2018-11-29T12:32:55.443Z,84.70
2018-11-29T12:35:23.901Z,84.70
2018-11-29T12:37:53.238Z,84.20
2018-11-29T12:40:20.971Z,84.50
2018-11-29T12:42:49.509Z,84.20
2018-11-29T12:45:18.030Z,83.90
2018-11-29T12:47:46.631Z,83.50
2018-11-29T12:50:17.090Z,83.20
2018-11-29T12:52:45.607Z,82.40
2018-11-29T12:55:14.986Z,82.30
2018-11-29T12:57:43.538Z,81.40
2018-11-29T13:00:14.951Z,80.90
2018-11-29T13:02:45.571Z,81.00
2018-11-29T13:05:14.067Z,80.60
2018-11-29T13:07:43.422Z,79.80
2018-11-29T13:10:11.624Z,79.80
2018-11-29T13:12:40.033Z,79.10
2018-11-29T13:15:12.252Z,78.90
2018-11-29T13:17:40.644Z,79.30
2018-11-29T13:20:10.907Z,80.20
2018-11-29T13:22:39.387Z,79.40
2018-11-29T13:25:11.533Z,79.50
2018-11-29T13:27:41.201Z,79.20
2018-11-29T13:30:15.770Z,79.20
2018-11-29T13:32:44.551Z,79.30
2018-11-29T13:35:16.730Z,78.80
2018-11-29T13:37:51.483Z,79.50
2018-11-29T13:40:20.014Z,78.70
2018-11-29T13:42:48.504Z,78.30
2018-11-29T13:45:17.072Z,79.30
2018-11-29T13:47:45.572Z,79.30
2018-11-29T13:50:16.927Z,79.50
2018-11-29T13:52:45.794Z,78.80
2018-11-29T13:55:15.270Z,78.20
2018-11-29T13:57:45.008Z,79.30
2018-11-29T14:00:17.530Z,78.50
2018-11-29T14:02:47.314Z,78.10
2018-11-29T14:05:15.825Z,77.50
2018-11-29T14:07:44.341Z,77.30
2018-11-29T14:10:14.178Z,76.80
2018-11-29T14:12:42.772Z,77.60
2018-11-29T14:15:13.706Z,75.70
2018-11-29T14:17:42.151Z,75.40
2018-11-29T14:20:11.731Z,75.50
2018-11-29T14:22:40.245Z,75.80
2018-11-29T14:25:11.999Z,75.60
2018-11-29T14:27:41.054Z,75.50
2018-11-29T14:30:11.996Z,75.80
2018-11-29T14:32:40.432Z,75.30
2018-11-29T14:35:08.909Z,75.60
2018-11-29T14:37:37.336Z,75.40
2018-11-29T14:40:11.170Z,75.10
2018-11-29T14:42:40.198Z,75.20
2018-11-29T14:45:11.665Z,75.20
2018-11-29T14:47:40.112Z,75.50
2018-11-29T14:50:11.346Z,75.60
2018-11-29T14:52:39.793Z,75.70
2018-11-29T14:55:10.033Z,75.50
2018-11-29T14:57:38.626Z,75.20
2018-11-29T15:00:12.595Z,75.40
2018-11-29T15:02:41.172Z,75.70
2018-11-29T15:05:14.281Z,75.50
2018-11-29T15:07:42.710Z,75.80
2018-11-29T15:10:11.181Z,76.10
2018-11-29T15:12:39.629Z,75.50
2018-11-29T15:15:10.311Z,75.70
2018-11-29T15:17:39.531Z,75.30
2018-11-29T15:20:13.547Z,75.10
2018-11-29T15:22:42.096Z,75.00
2018-11-29T15:25:10.657Z,75.30
2018-11-29T15:27:39.145Z,75.00
2018-11-29T15:30:11.178Z,75.10
2018-11-29T15:32:39.612Z,75.60
2018-11-29T15:35:08.678Z,75.30
2018-11-29T15:37:37.170Z,75.80
2018-11-29T15:40:10.926Z,76.00
2018-11-29T15:42:39.335Z,75.50
2018-11-29T15:45:10.443Z,76.00
2018-11-29T15:47:38.899Z,75.70
2018-11-29T15:50:09.661Z,76.00
2018-11-29T15:52:38.147Z,76.00
2018-11-29T15:55:08.832Z,76.10
2018-11-29T15:57:37.268Z,75.80
2018-11-29T16:00:09.665Z,76.00
2018-11-29T16:02:38.146Z,76.00
2018-11-29T16:05:07.098Z,76.20
2018-11-29T16:07:35.509Z,76.10
2018-11-29T16:10:04.663Z,76.20
2018-11-29T16:12:33.274Z,76.50
2018-11-29T16:15:01.730Z,76.40
2018-11-29T16:17:30.164Z,76.70
2018-11-29T16:19:58.590Z,77.00
2018-11-29T16:22:27.029Z,76.90
2018-11-29T16:24:55.548Z,76.90
2018-11-29T16:27:24.043Z,76.90
2018-11-29T16:29:52.481Z,77.00
2018-11-29T16:32:21.224Z,77.10
2018-11-29T16:34:49.672Z,77.00
2018-11-29T16:37:18.166Z,77.20
2018-11-29T16:39:46.595Z,77.00
2018-11-29T16:42:15.154Z,77.10
2018-11-29T16:44:43.607Z,77.00
2018-11-29T16:47:12.045Z,77.00
2018-11-29T16:49:40.526Z,77.10
2018-11-29T16:52:08.984Z,76.90
2018-11-29T16:54:37.664Z,77.10
2018-11-29T16:57:07.155Z,76.90
2018-11-29T16:59:35.667Z,77.20
2018-11-29T17:02:06.028Z,77.20
2018-11-29T17:04:34.477Z,77.20
2018-11-29T17:07:02.906Z,77.10
2018-11-29T17:09:31.420Z,77.30
2018-11-29T17:12:00.369Z,77.60
2018-11-29T17:14:28.657Z,77.80
2018-11-29T17:16:57.403Z,77.70
2018-11-29T17:19:25.966Z,77.80
2018-11-29T17:21:54.401Z,77.90
2018-11-29T17:24:23.230Z,77.40
2018-11-29T17:26:51.671Z,77.50
2018-11-29T17:29:20.119Z,77.30
2018-11-29T17:31:48.535Z,77.00
2018-11-29T17:34:16.995Z,76.90
2018-11-29T17:36:46.206Z,78.20
2018-11-29T17:39:14.835Z,77.30
2018-11-29T17:41:43.319Z,77.40
2018-11-29T17:44:11.880Z,77.50
2018-11-29T17:46:40.478Z,77.50
2018-11-29T17:49:21.269Z,78.00
2018-11-29T17:51:53.741Z,78.40
2018-11-29T17:54:18.799Z,78.60
2018-11-29T17:56:50.581Z,79.00
2018-11-29T17:59:19.381Z,79.10
2018-11-29T18:01:47.892Z,79.20
2018-11-29T18:04:16.337Z,79.40
2018-11-29T18:06:44.785Z,79.40
2018-11-29T18:09:13.239Z,79.40
2018-11-29T18:11:41.846Z,79.50
2018-11-29T18:14:10.608Z,79.50
2018-11-29T18:16:39.822Z,79.50
2018-11-29T18:19:13.177Z,79.70
2018-11-29T18:21:41.270Z,80.00
2018-11-29T18:24:09.860Z,80.10
2018-11-29T18:26:38.294Z,80.10
2018-11-29T18:29:06.782Z,80.50
2018-11-29T18:31:35.251Z,80.30
2018-11-29T18:34:03.744Z,80.30
2018-11-29T18:36:32.182Z,80.10
2018-11-29T18:39:00.649Z,80.20
2018-11-29T18:41:29.077Z,81.20
2018-11-29T18:43:57.687Z,80.30
2018-11-29T18:46:26.138Z,80.70
2018-11-29T18:48:54.686Z,81.20
2018-11-29T18:51:23.244Z,81.30
2018-11-29T18:53:51.750Z,81.30
2018-11-29T18:56:20.217Z,81.30
2018-11-29T18:58:48.648Z,81.20
2018-11-29T19:01:17.120Z,81.10
2018-11-29T19:03:45.598Z,80.30
2018-11-29T19:06:14.051Z,80.90
2018-11-29T19:08:42.522Z,80.90
2018-11-29T19:11:11.014Z,81.00
2018-11-29T19:13:39.506Z,81.00
2018-11-29T19:16:07.915Z,81.10
2018-11-29T19:18:36.382Z,81.20
2018-11-29T19:21:04.840Z,81.30
2018-11-29T19:23:33.280Z,81.40
2018-11-29T19:26:01.698Z,81.40
2018-11-29T19:28:30.228Z,81.20
2018-11-29T19:30:58.680Z,81.60
2018-11-29T19:33:27.923Z,81.80
2018-11-29T19:35:56.413Z,82.00
2018-11-29T19:38:24.911Z,81.90
2018-11-29T19:40:53.375Z,82.30
2018-11-29T19:43:21.887Z,82.50
2018-11-29T19:45:50.347Z,82.50
2018-11-29T19:48:18.848Z,82.90
2018-11-29T19:50:47.347Z,83.30
2018-11-29T19:53:19.161Z,83.30
2018-11-29T19:55:48.356Z,83.20
2018-11-29T19:58:16.916Z,83.20
2018-11-29T20:00:45.388Z,83.50
2018-11-29T20:03:13.865Z,83.70
2018-11-29T20:05:42.296Z,84.00
2018-11-29T20:08:10.838Z,84.30
2018-11-29T20:10:39.350Z,84.40
2018-11-29T20:13:12.104Z,84.70
2018-11-29T20:15:44.921Z,84.70
2018-11-29T20:18:14.124Z,85.00
2018-11-29T20:20:42.669Z,85.10
2018-11-29T20:23:11.903Z,85.10
2018-11-29T20:25:41.577Z,85.10
2018-11-29T20:28:10.014Z,85.30
2018-11-29T20:30:38.460Z,85.30
2018-11-29T20:33:07.039Z,85.40
2018-11-29T20:35:35.523Z,85.50
2018-11-29T20:38:04.004Z,85.50
2018-11-29T20:40:34.112Z,85.60
2018-11-29T20:43:02.624Z,85.70
2018-11-29T20:45:32.710Z,85.80
2018-11-29T20:48:01.786Z,86.10
2018-11-29T20:50:30.330Z,86.10
2018-11-29T20:52:59.657Z,86.20
2018-11-29T20:55:29.463Z,86.20
2018-11-29T20:57:58.032Z,86.50
2018-11-29T21:00:26.540Z,86.50
2018-11-29T21:02:55.012Z,86.60
2018-11-29T21:05:24.378Z,86.70
2018-11-29T21:07:55.258Z,86.60
2018-11-29T21:10:24.734Z,86.60
2018-11-29T21:12:53.212Z,86.60
2018-11-29T21:15:21.789Z,86.40
2018-11-29T21:17:50.235Z,86.40
2018-11-29T21:20:19.812Z,86.30
2018-11-29T21:22:49.503Z,86.20
2018-11-29T21:25:22.278Z,86.40
2018-11-29T21:27:50.831Z,86.40
2018-11-29T21:30:19.310Z,86.60
2018-11-29T21:32:48.028Z,86.60
2018-11-29T21:35:18.778Z,86.70
2018-11-29T21:37:47.223Z,86.60
2018-11-29T21:40:19.313Z,86.40
2018-11-29T21:42:47.807Z,86.40
2018-11-29T21:45:17.191Z,86.30
2018-11-29T21:47:45.637Z,86.10
2018-11-29T21:50:14.123Z,86.10
2018-11-29T21:52:42.557Z,86.10
2018-11-29T21:55:10.991Z,85.90
2018-11-29T21:57:39.438Z,86.00
2018-11-29T22:00:11.753Z,85.90
2018-11-29T22:02:41.827Z,86.30
2018-11-29T22:05:10.124Z,86.20
2018-11-29T22:07:38.571Z,86.30
2018-11-29T22:10:07.047Z,86.50
2018-11-29T22:12:35.476Z,86.60
2018-11-29T22:15:04.403Z,86.60
2018-11-29T22:17:32.808Z,86.70
2018-11-29T22:20:01.275Z,86.70
2018-11-29T22:22:29.743Z,86.70
2018-11-29T22:24:58.172Z,86.80
2018-11-29T22:27:26.581Z,86.90
2018-11-29T22:29:55.013Z,86.80
2018-11-29T22:32:23.430Z,86.80
2018-11-29T22:34:51.867Z,86.90
2018-11-29T22:37:20.290Z,87.00
2018-11-29T22:39:48.710Z,87.10
2018-11-29T22:42:17.286Z,87.20
2018-11-29T22:44:45.685Z,87.10
2018-11-29T22:47:14.113Z,87.20
2018-11-29T22:49:42.562Z,87.20
2018-11-29T22:52:11.060Z,87.10
2018-11-29T22:54:39.472Z,86.90
2018-11-29T22:57:07.917Z,86.60
2018-11-29T22:59:36.342Z,86.50
2018-11-29T23:02:05.300Z,86.70
2018-11-29T23:04:33.714Z,86.70
2018-11-29T23:07:02.121Z,86.90
2018-11-29T23:09:30.589Z,87.80
2018-11-29T23:11:59.007Z,87.10
2018-11-29T23:14:27.432Z,87.30
2018-11-29T23:16:55.866Z,87.40
2018-11-29T23:19:24.312Z,87.50
2018-11-29T23:21:52.743Z,87.50
2018-11-29T23:24:21.153Z,87.60
2018-11-29T23:26:49.612Z,87.90
2018-11-29T23:29:18.013Z,88.00
2018-11-29T23:31:46.422Z,88.30
2018-11-29T23:34:14.839Z,88.40
2018-11-29T23:36:43.313Z,88.30
2018-11-29T23:39:11.707Z,88.40
2018-11-29T23:41:40.148Z,88.60
2018-11-29T23:44:08.571Z,88.60
2018-11-29T23:46:36.974Z,88.50
2018-11-29T23:49:05.607Z,88.50
2018-11-29T23:51:34.068Z,88.60
2018-11-29T23:54:02.507Z,88.60
2018-11-29T23:56:30.915Z,88.70
2018-11-29T23:59:03.048Z,88.80
